Time;durP1;ratioP1;P1;durP2;ratioP2;P2;SDS_P1;SDS_P2;PMS_P1;PMS_P2;Temp;Humidity;BMP_temperature;BMP_pressure;BME280_temperature;BME280_humidity;BME280_pressure;Samples;Min_cycle;Max_cycle;Signal;HPM_P1;HPM_P2
2022/07/29 00:01:57;;;;;;;2.60;1.80;;;;;;;;;;5030848;28;20067;-63
2022/07/29 00:04:23;;;;;;;3.72;2.10;;;;;;;;;;5029868;28;20044;-63
2022/07/29 00:06:49;;;;;;;5.63;1.90;;;;;;;;;;5030503;28;20171;-63
2022/07/29 00:09:15;;;;;;;2.65;1.75;;;;;;;;;;5027668;28;20120;-63
2022/07/29 00:11:41;;;;;;;2.20;1.55;;;;;;;;;;5011839;28;20052;-63
2022/07/29 00:14:08;;;;;;;3.08;1.70;;;;;;;;;;5011623;28;20046;-63
2022/07/29 00:16:34;;;;;;;7.65;1.98;;;;;;;;;;5027614;28;20053;-63
2022/07/29 00:19:00;;;;;;;2.22;1.65;;;;;;;;;;5030338;28;20040;-63
2022/07/29 00:21:26;;;;;;;5.05;1.92;;;;;;;;;;5025021;28;20042;-63
2022/07/29 00:23:52;;;;;;;2.88;1.90;;;;;;;;;;5029966;28;20040;-62
2022/07/29 00:26:18;;;;;;;4.97;2.20;;;;;;;;;;5013641;28;20466;-62
2022/07/29 00:28:44;;;;;;;3.38;2.05;;;;;;;;;;5025886;28;20037;-62
2022/07/29 00:31:10;;;;;;;3.75;2.20;;;;;;;;;;5031303;28;20113;-62
2022/07/29 00:33:36;;;;;;;3.80;2.20;;;;;;;;;;5029793;28;20430;-62
2022/07/29 00:36:02;;;;;;;5.28;2.40;;;;;;;;;;5020374;28;20403;-62
2022/07/29 00:38:28;;;;;;;3.97;1.95;;;;;;;;;;5028471;28;20502;-62
2022/07/29 00:40:54;;;;;;;4.63;2.65;;;;;;;;;;5030966;28;20430;-62
2022/07/29 00:43:21;;;;;;;3.50;2.20;;;;;;;;;;5027546;28;20033;-62
2022/07/29 00:45:47;;;;;;;8.45;2.38;;;;;;;;;;5028385;28;20620;-62
2022/07/29 00:48:13;;;;;;;3.60;1.90;;;;;;;;;;5029481;28;20116;-62
2022/07/29 00:50:39;;;;;;;3.58;2.08;;;;;;;;;;5029107;28;20136;-62
2022/07/29 00:53:09;;;;;;;4.10;2.03;;;;;;;;;;5030011;28;20034;-62
2022/07/29 00:55:35;;;;;;;2.40;2.03;;;;;;;;;;5022883;28;20045;-62
2022/07/29 00:58:01;;;;;;;4.65;1.90;;;;;;;;;;5028616;28;20504;-62
2022/07/29 01:00:28;;;;;;;4.25;2.17;;;;;;;;;;5030466;28;20392;-63
2022/07/29 01:02:54;;;;;;;4.97;1.92;;;;;;;;;;5030440;28;20116;-63
2022/07/29 01:05:22;;;;;;;5.47;2.15;;;;;;;;;;5030128;28;20079;-63
2022/07/29 01:07:49;;;;;;;4.20;2.10;;;;;;;;;;5032336;28;20042;-62
2022/07/29 01:10:16;;;;;;;2.92;1.80;;;;;;;;;;5024822;28;20042;-62
2022/07/29 01:12:43;;;;;;;3.17;2.00;;;;;;;;;;5023072;28;20438;-63
2022/07/29 01:15:10;;;;;;;3.85;1.92;;;;;;;;;;5030848;28;20040;-62
2022/07/29 01:17:39;;;;;;;4.50;2.00;;;;;;;;;;5032249;28;20131;-62
2022/07/29 01:20:14;;;;;;;3.97;2.00;;;;;;;;;;5032990;28;20122;-62
2022/07/29 01:22:59;;;;;;;4.18;2.72;;;;;;;;;;5022342;28;20108;-62
2022/07/29 01:25:35;;;;;;;4.10;2.80;;;;;;;;;;5038442;28;20044;-62
2022/07/29 01:28:20;;;;;;;5.50;2.60;;;;;;;;;;5033545;28;20041;-62
2022/07/29 01:30:46;;;;;;;4.65;2.30;;;;;;;;;;5018372;28;20403;-62
2022/07/29 01:33:48;;;;;;;5.90;2.22;;;;;;;;;;5023749;28;20380;-62
2022/07/29 01:36:08;;;;;;;4.03;2.35;;;;;;;;;;5023942;28;20044;-62
2022/07/29 01:38:36;;;;;;;3.90;2.42;;;;;;;;;;5030403;28;20037;-62
2022/07/29 01:41:10;;;;;;;2.97;2.13;;;;;;;;;;5031853;28;20040;-62
2022/07/29 01:43:39;;;;;;;5.65;2.70;;;;;;;;;;5022372;28;20037;-62
2022/07/29 01:46:09;;;;;;;3.53;2.30;;;;;;;;;;5013431;28;20041;-62
2022/07/29 01:48:39;;;;;;;5.55;2.33;;;;;;;;;;5026189;28;20584;-62
2022/07/29 01:51:08;;;;;;;5.72;2.53;;;;;;;;;;5032448;28;20037;-62
2022/07/29 01:53:42;;;;;;;3.80;2.35;;;;;;;;;;5033765;28;20041;-62
2022/07/29 01:56:09;;;;;;;4.72;2.40;;;;;;;;;;5032825;28;20059;-62
2022/07/29 01:58:37;;;;;;;3.15;2.40;;;;;;;;;;5032085;28;20470;-62
2022/07/29 02:01:04;;;;;;;4.35;2.13;;;;;;;;;;5024133;28;20033;-62
2022/07/29 02:03:31;;;;;;;4.57;2.45;;;;;;;;;;5032174;28;20470;-62
2022/07/29 02:05:57;;;;;;;6.13;2.55;;;;;;;;;;5022478;28;20034;-62
2022/07/29 02:08:23;;;;;;;3.53;2.22;;;;;;;;;;5031209;28;20045;-62
2022/07/29 02:10:50;;;;;;;5.63;2.35;;;;;;;;;;5029247;28;20037;-62
2022/07/29 02:13:17;;;;;;;3.72;2.20;;;;;;;;;;5032295;28;20067;-62
2022/07/29 02:15:44;;;;;;;5.40;2.40;;;;;;;;;;5020258;28;20048;-62
2022/07/29 02:18:16;;;;;;;6.07;2.35;;;;;;;;;;5022532;28;20034;-62
2022/07/29 02:20:45;;;;;;;5.97;2.40;;;;;;;;;;5030698;28;20484;-62
2022/07/29 02:23:12;;;;;;;5.28;2.42;;;;;;;;;;5032440;28;20104;-62
2022/07/29 02:25:38;;;;;;;3.42;2.50;;;;;;;;;;5032907;28;20051;-62
2022/07/29 02:28:06;;;;;;;5.28;2.13;;;;;;;;;;5032475;28;20056;-62
2022/07/29 02:30:32;;;;;;;4.82;2.25;;;;;;;;;;5029314;28;20087;-62
2022/07/29 02:32:59;;;;;;;5.43;2.40;;;;;;;;;;5031961;28;20041;-62
2022/07/29 02:35:25;;;;;;;4.35;2.38;;;;;;;;;;5032710;28;20037;-62
2022/07/29 02:40:38;;;;;;;4.45;2.17;;;;;;;;;;5024875;28;20053;-62
2022/07/29 02:43:06;;;;;;;6.45;2.60;;;;;;;;;;5031793;28;20123;-62
2022/07/29 02:45:32;;;;;;;3.08;2.30;;;;;;;;;;5021038;28;20559;-62
2022/07/29 02:48:00;;;;;;;4.07;2.40;;;;;;;;;;5019081;28;20384;-62
2022/07/29 02:50:34;;;;;;;3.38;2.10;;;;;;;;;;5030680;28;20041;-62
2022/07/29 02:53:00;;;;;;;7.40;2.55;;;;;;;;;;5028185;28;20047;-62
2022/07/29 02:55:29;;;;;;;6.22;2.67;;;;;;;;;;5054066;22;20131;-61
2022/07/29 02:57:55;;;;;;;3.22;2.30;;;;;;;;;;5049624;28;20049;-61
2022/07/29 03:00:23;;;;;;;4.97;2.53;;;;;;;;;;5050008;28;20112;-61
2022/07/29 03:02:51;;;;;;;3.92;2.30;;;;;;;;;;5044573;28;20036;-62
2022/07/29 03:05:18;;;;;;;4.82;2.20;;;;;;;;;;5043979;28;20065;-61
2022/07/29 03:07:51;;;;;;;4.97;2.70;;;;;;;;;;5030638;28;20048;-61
2022/07/29 03:10:18;;;;;;;3.35;2.20;;;;;;;;;;5022460;28;20121;-61
2022/07/29 03:12:44;;;;;;;2.65;2.00;;;;;;;;;;5017532;28;20033;-62
2022/07/29 03:15:11;;;;;;;2.88;2.50;;;;;;;;;;5024029;28;20036;-62
2022/07/29 03:17:38;;;;;;;4.80;2.38;;;;;;;;;;5029543;28;20069;-61
2022/07/29 03:20:04;;;;;;;5.82;2.35;;;;;;;;;;5030566;28;20072;-62
2022/07/29 03:22:30;;;;;;;3.17;2.38;;;;;;;;;;5030827;28;20049;-62
2022/07/29 03:24:56;;;;;;;3.55;2.30;;;;;;;;;;5024936;28;20038;-62
2022/07/29 03:27:22;;;;;;;4.75;2.38;;;;;;;;;;5028797;28;20041;-62
2022/07/29 03:29:49;;;;;;;5.53;2.55;;;;;;;;;;5030780;28;20038;-62
2022/07/29 03:32:15;;;;;;;3.88;2.22;;;;;;;;;;5030069;28;20041;-62
2022/07/29 03:34:41;;;;;;;4.28;2.35;;;;;;;;;;5031409;28;20041;-61
2022/07/29 03:37:07;;;;;;;5.57;2.20;;;;;;;;;;5012161;28;20056;-62
2022/07/29 03:39:35;;;;;;;4.22;2.15;;;;;;;;;;5030523;28;20044;-62
2022/07/29 03:42:01;;;;;;;3.58;1.92;;;;;;;;;;5028806;28;20044;-62
2022/07/29 03:44:28;;;;;;;2.72;2.25;;;;;;;;;;5030532;28;20041;-62
2022/07/29 03:46:56;;;;;;;3.75;2.17;;;;;;;;;;5011906;28;20130;-62
2022/07/29 03:49:22;;;;;;;6.38;2.67;;;;;;;;;;5028421;28;20041;-62
2022/07/29 03:51:48;;;;;;;3.33;2.20;;;;;;;;;;5022271;28;20483;-61
2022/07/29 03:54:14;;;;;;;6.07;2.38;;;;;;;;;;5011598;28;20052;-61
2022/07/29 03:56:42;;;;;;;8.02;2.60;;;;;;;;;;5028776;28;20091;-61
2022/07/29 03:59:08;;;;;;;4.03;2.22;;;;;;;;;;5029698;28;20088;-62
2022/07/29 04:01:35;;;;;;;6.72;2.30;;;;;;;;;;5020239;28;20034;-62
2022/07/29 04:04:05;;;;;;;3.78;2.00;;;;;;;;;;5025092;28;20034;-62
2022/07/29 04:06:38;;;;;;;5.35;2.33;;;;;;;;;;5034654;28;20064;-61
2022/07/29 04:09:04;;;;;;;5.90;2.25;;;;;;;;;;5027318;28;20083;-62
2022/07/29 04:11:30;;;;;;;4.70;2.55;;;;;;;;;;5030735;28;20061;-62
2022/07/29 04:13:56;;;;;;;3.25;2.25;;;;;;;;;;5028702;28;20125;-62
2022/07/29 04:16:22;;;;;;;2.67;1.80;;;;;;;;;;5028930;28;20137;-62
2022/07/29 04:18:48;;;;;;;7.07;2.33;;;;;;;;;;5024979;28;20034;-62
2022/07/29 04:21:14;;;;;;;4.55;2.20;;;;;;;;;;5027813;28;20044;-62
2022/07/29 04:23:40;;;;;;;4.05;2.13;;;;;;;;;;5008310;28;20072;-61
2022/07/29 04:26:09;;;;;;;3.65;2.60;;;;;;;;;;5010703;28;20047;-61
2022/07/29 04:28:35;;;;;;;4.40;1.90;;;;;;;;;;5029505;28;20056;-62
2022/07/29 04:31:01;;;;;;;4.25;2.38;;;;;;;;;;5028099;28;20522;-61
2022/07/29 04:33:27;;;;;;;6.70;1.92;;;;;;;;;;5027243;28;20038;-61
2022/07/29 04:35:53;;;;;;;5.65;2.10;;;;;;;;;;5030164;28;20048;-61
2022/07/29 04:38:19;;;;;;;3.97;2.20;;;;;;;;;;5028442;28;20038;-61
2022/07/29 04:40:45;;;;;;;4.13;2.45;;;;;;;;;;5031262;28;20076;-61
2022/07/29 04:43:11;;;;;;;3.72;2.20;;;;;;;;;;5032264;28;20077;-61
2022/07/29 04:45:37;;;;;;;4.60;2.00;;;;;;;;;;5015152;28;20036;-61
2022/07/29 04:48:03;;;;;;;3.95;2.20;;;;;;;;;;5034445;28;20039;-62
2022/07/29 04:50:29;;;;;;;3.38;1.83;;;;;;;;;;5032841;28;20160;-61
2022/07/29 04:52:55;;;;;;;4.30;1.98;;;;;;;;;;5033334;28;20133;-61
2022/07/29 04:55:21;;;;;;;2.25;1.80;;;;;;;;;;5015512;28;20662;-61
2022/07/29 04:57:47;;;;;;;4.65;2.00;;;;;;;;;;5016346;28;20049;-61
2022/07/29 05:00:14;;;;;;;4.28;1.92;;;;;;;;;;5034226;28;20086;-61
2022/07/29 05:02:40;;;;;;;5.13;2.63;;;;;;;;;;5032340;28;20514;-61
2022/07/29 05:05:06;;;;;;;3.53;2.00;;;;;;;;;;5030693;28;20041;-61
2022/07/29 05:07:32;;;;;;;3.50;2.05;;;;;;;;;;5031787;28;20044;-61
2022/07/29 05:09:58;;;;;;;5.15;1.98;;;;;;;;;;5033284;28;20403;-61
2022/07/29 05:12:24;;;;;;;4.53;2.20;;;;;;;;;;5032249;28;20441;-61
2022/07/29 05:14:50;;;;;;;5.57;2.22;;;;;;;;;;5031467;28;20029;-61
2022/07/29 05:17:16;;;;;;;3.15;2.00;;;;;;;;;;5032551;28;20045;-61
2022/07/29 05:19:42;;;;;;;4.40;2.20;;;;;;;;;;5030801;28;20091;-61
2022/07/29 05:22:08;;;;;;;3.67;2.22;;;;;;;;;;5031814;28;20368;-61
2022/07/29 05:24:34;;;;;;;4.30;2.08;;;;;;;;;;5031228;28;20090;-61
2022/07/29 05:27:00;;;;;;;2.63;2.10;;;;;;;;;;5030845;28;20039;-61
2022/07/29 05:29:27;;;;;;;5.03;2.13;;;;;;;;;;5032672;28;20048;-61
2022/07/29 05:31:53;;;;;;;6.35;2.40;;;;;;;;;;5032422;28;20044;-60
2022/07/29 05:34:19;;;;;;;4.68;2.40;;;;;;;;;;5026681;28;20037;-61
2022/07/29 05:36:45;;;;;;;5.50;2.50;;;;;;;;;;5033000;28;20072;-61
2022/07/29 05:39:12;;;;;;;5.22;2.17;;;;;;;;;;5032320;28;20115;-61
2022/07/29 05:41:38;;;;;;;4.13;2.40;;;;;;;;;;5029842;28;20392;-61
2022/07/29 05:44:05;;;;;;;4.07;2.70;;;;;;;;;;5032567;28;20038;-61
2022/07/29 05:46:31;;;;;;;4.60;2.25;;;;;;;;;;5032991;28;20033;-61
2022/07/29 05:48:57;;;;;;;4.00;2.15;;;;;;;;;;5030671;28;20453;-61
2022/07/29 05:51:23;;;;;;;4.32;2.22;;;;;;;;;;5032422;28;20049;-62
2022/07/29 05:53:49;;;;;;;5.00;2.60;;;;;;;;;;5029887;28;20037;-62
2022/07/29 05:56:15;;;;;;;3.13;2.10;;;;;;;;;;5008106;28;20033;-62
2022/07/29 05:58:41;;;;;;;5.50;2.40;;;;;;;;;;5030155;28;20071;-62
2022/07/29 06:01:07;;;;;;;4.00;2.30;;;;;;;;;;5026096;28;20045;-62
2022/07/29 06:03:34;;;;;;;4.25;2.35;;;;;;;;;;5026590;28;20045;-62
2022/07/29 06:06:00;;;;;;;3.85;2.10;;;;;;;;;;5032627;28;20128;-62
2022/07/29 06:08:26;;;;;;;5.25;2.70;;;;;;;;;;5029910;28;20209;-62
2022/07/29 06:10:52;;;;;;;4.13;2.25;;;;;;;;;;5025674;28;20041;-62
2022/07/29 06:13:18;;;;;;;5.32;2.42;;;;;;;;;;5030371;28;20142;-62
2022/07/29 06:15:44;;;;;;;4.40;2.30;;;;;;;;;;5014924;28;20144;-62
2022/07/29 06:18:10;;;;;;;6.05;2.38;;;;;;;;;;5028495;28;20044;-62
2022/07/29 06:20:36;;;;;;;5.20;2.05;;;;;;;;;;5027829;28;20041;-62
2022/07/29 06:23:04;;;;;;;4.53;2.35;;;;;;;;;;5025148;28;20033;-62
2022/07/29 06:25:32;;;;;;;3.58;2.30;;;;;;;;;;5030919;28;20045;-62
2022/07/29 06:27:58;;;;;;;4.57;2.22;;;;;;;;;;5030378;28;20045;-62
2022/07/29 06:30:24;;;;;;;7.53;2.58;;;;;;;;;;5031730;28;20041;-62
2022/07/29 06:32:50;;;;;;;5.53;2.38;;;;;;;;;;5031867;28;20037;-61
2022/07/29 06:35:16;;;;;;;6.82;2.50;;;;;;;;;;5030890;28;20093;-62
2022/07/29 06:37:42;;;;;;;5.25;2.40;;;;;;;;;;5031073;28;20045;-62
2022/07/29 06:42:53;;;;;;;5.78;2.22;;;;;;;;;;5030898;28;20041;-62
2022/07/29 06:45:19;;;;;;;5.40;2.40;;;;;;;;;;5032263;28;20116;-62
2022/07/29 06:47:45;;;;;;;3.60;2.22;;;;;;;;;;5028671;28;20037;-62
2022/07/29 06:50:12;;;;;;;6.10;2.60;;;;;;;;;;5029340;28;20041;-62
2022/07/29 06:52:39;;;;;;;3.35;2.20;;;;;;;;;;5032083;28;20103;-62
2022/07/29 06:55:05;;;;;;;5.43;2.40;;;;;;;;;;5028597;28;20111;-61
2022/07/29 06:57:31;;;;;;;4.30;2.40;;;;;;;;;;5029213;28;20410;-61
2022/07/29 06:59:57;;;;;;;5.05;2.50;;;;;;;;;;5028480;28;20396;-62
2022/07/29 07:02:23;;;;;;;4.10;2.15;;;;;;;;;;5008373;28;20133;-61
2022/07/29 07:04:49;;;;;;;5.25;2.53;;;;;;;;;;5028766;28;20049;-62
2022/07/29 07:07:15;;;;;;;4.75;2.60;;;;;;;;;;5028940;28;20480;-61
2022/07/29 07:09:41;;;;;;;6.40;2.45;;;;;;;;;;5027904;28;20088;-61
2022/07/29 07:12:07;;;;;;;4.53;2.58;;;;;;;;;;5026127;28;20048;-62
2022/07/29 07:14:34;;;;;;;4.57;2.65;;;;;;;;;;5023305;28;20037;-62
2022/07/29 07:17:00;;;;;;;6.55;2.65;;;;;;;;;;5029175;28;20048;-61
2022/07/29 07:19:26;;;;;;;5.05;2.22;;;;;;;;;;5030083;28;20064;-61
2022/07/29 07:21:53;;;;;;;4.40;2.70;;;;;;;;;;5020638;28;20048;-61
2022/07/29 07:24:19;;;;;;;5.57;2.42;;;;;;;;;;5030413;28;20037;-61
2022/07/29 07:26:45;;;;;;;5.13;2.30;;;;;;;;;;5029997;28;20527;-61
2022/07/29 07:29:11;;;;;;;4.95;2.30;;;;;;;;;;5029109;28;20033;-61
2022/07/29 07:31:38;;;;;;;4.03;2.40;;;;;;;;;;5014635;28;20480;-61
2022/07/29 07:34:04;;;;;;;4.95;2.33;;;;;;;;;;5029862;28;20400;-61
2022/07/29 07:36:30;;;;;;;5.07;2.85;;;;;;;;;;5028517;28;20045;-61
2022/07/29 07:38:56;;;;;;;3.72;2.53;;;;;;;;;;5027819;28;20047;-62
2022/07/29 07:41:22;;;;;;;6.40;2.72;;;;;;;;;;5031830;28;20475;-61
2022/07/29 07:43:49;;;;;;;3.42;2.80;;;;;;;;;;5032020;28;20033;-62
2022/07/29 07:46:15;;;;;;;6.18;2.60;;;;;;;;;;5027808;28;20118;-61
2022/07/29 07:48:41;;;;;;;3.63;2.45;;;;;;;;;;5029173;28;20399;-61
2022/07/29 07:51:07;;;;;;;5.43;2.80;;;;;;;;;;5026232;28;20045;-61
2022/07/29 07:53:34;;;;;;;7.95;2.72;;;;;;;;;;5030858;28;20039;-61
2022/07/29 07:56:00;;;;;;;6.13;2.15;;;;;;;;;;5030203;28;20038;-61
2022/07/29 07:58:26;;;;;;;5.97;2.60;;;;;;;;;;5028212;28;20041;-61
2022/07/29 08:00:52;;;;;;;6.13;2.40;;;;;;;;;;5025992;28;20037;-61
2022/07/29 08:03:18;;;;;;;9.18;2.60;;;;;;;;;;5031068;28;20083;-62
2022/07/29 08:05:46;;;;;;;4.80;2.20;;;;;;;;;;5026238;28;20118;-61
2022/07/29 08:08:12;;;;;;;6.13;2.55;;;;;;;;;;5023808;28;20045;-62
2022/07/29 08:10:53;;;;;;;4.50;2.28;;;;;;;;;;5027160;28;20033;-62
2022/07/29 08:13:20;;;;;;;7.22;2.45;;;;;;;;;;5021684;28;20100;-62
2022/07/29 08:15:46;;;;;;;5.15;2.42;;;;;;;;;;5028219;28;20042;-62
2022/07/29 08:18:13;;;;;;;4.82;2.67;;;;;;;;;;5033672;28;20049;-62
2022/07/29 08:20:39;;;;;;;6.30;2.75;;;;;;;;;;5028585;28;20498;-61
2022/07/29 08:23:06;;;;;;;4.70;2.53;;;;;;;;;;5020755;28;20112;-61
2022/07/29 08:25:33;;;;;;;5.78;2.42;;;;;;;;;;5034220;28;20125;-62
2022/07/29 08:27:59;;;;;;;5.25;2.65;;;;;;;;;;5033227;28;20073;-62
2022/07/29 08:30:25;;;;;;;6.25;2.45;;;;;;;;;;5031405;28;20044;-62
2022/07/29 08:32:52;;;;;;;5.32;2.67;;;;;;;;;;5030145;28;20112;-61
2022/07/29 08:35:19;;;;;;;5.35;2.40;;;;;;;;;;5033903;28;20492;-62
2022/07/29 08:37:45;;;;;;;7.57;2.47;;;;;;;;;;5033373;28;20048;-62
2022/07/29 08:40:12;;;;;;;7.10;2.67;;;;;;;;;;5030358;28;20033;-61
2022/07/29 08:42:38;;;;;;;10.57;3.13;;;;;;;;;;5031075;28;20030;-62
2022/07/29 08:45:05;;;;;;;4.88;2.35;;;;;;;;;;5029221;28;20073;-61
2022/07/29 08:47:31;;;;;;;6.25;2.53;;;;;;;;;;5033169;28;20038;-63
2022/07/29 08:49:58;;;;;;;6.15;2.50;;;;;;;;;;5015830;28;20037;-62
2022/07/29 08:52:26;;;;;;;9.35;2.80;;;;;;;;;;5034405;28;20099;-61
2022/07/29 08:57:25;;;;;;;4.72;2.50;;;;;;;;;;5033335;28;20116;-60
2022/07/29 08:59:52;;;;;;;5.22;2.50;;;;;;;;;;5033167;28;20502;-60
2022/07/29 09:02:22;;;;;;;4.45;2.40;;;;;;;;;;5033585;28;20052;-60
2022/07/29 09:04:49;;;;;;;4.68;2.40;;;;;;;;;;5034571;28;20040;-60
2022/07/29 09:07:16;;;;;;;4.60;2.22;;;;;;;;;;5014514;28;20120;-60
2022/07/29 09:09:42;;;;;;;3.85;2.40;;;;;;;;;;5014143;28;20049;-61
2022/07/29 09:12:11;;;;;;;8.20;2.72;;;;;;;;;;5013806;28;20042;-60
2022/07/29 09:14:37;;;;;;;8.43;2.60;;;;;;;;;;5013653;28;20088;-60
2022/07/29 09:17:03;;;;;;;8.00;3.17;;;;;;;;;;5012614;28;20044;-60
2022/07/29 09:19:36;;;;;;;6.80;2.65;;;;;;;;;;5014890;28;20041;-60
2022/07/29 09:22:04;;;;;;;7.47;2.22;;;;;;;;;;5014154;28;20044;-60
2022/07/29 09:24:39;;;;;;;6.07;2.60;;;;;;;;;;5013978;28;20042;-60
2022/07/29 09:27:28;;;;;;;5.68;2.72;;;;;;;;;;5008497;28;20038;-60
2022/07/29 09:30:01;;;;;;;5.65;2.50;;;;;;;;;;5008830;28;20046;-60
2022/07/29 09:32:29;;;;;;;5.28;2.67;;;;;;;;;;5013911;28;20450;-60
2022/07/29 09:35:14;;;;;;;3.60;2.28;;;;;;;;;;5013844;28;20042;-61
2022/07/29 09:37:40;;;;;;;5.88;2.60;;;;;;;;;;5014304;28;20049;-60
2022/07/29 09:40:32;;;;;;;5.30;2.42;;;;;;;;;;5014132;28;20034;-60
2022/07/29 09:42:58;;;;;;;3.83;2.30;;;;;;;;;;5007516;28;20041;-60
2022/07/29 09:45:30;;;;;;;7.22;2.25;;;;;;;;;;5012426;28;20038;-60
2022/07/29 09:48:00;;;;;;;5.03;2.60;;;;;;;;;;5014169;28;20517;-60
2022/07/29 09:50:55;;;;;;;5.50;2.65;;;;;;;;;;5013468;28;20056;-60
2022/07/29 09:53:37;;;;;;;4.25;2.42;;;;;;;;;;5008320;28;20045;-60
2022/07/29 09:56:03;;;;;;;7.65;2.42;;;;;;;;;;5010644;28;20034;-60
2022/07/29 09:58:30;;;;;;;5.18;2.40;;;;;;;;;;5003759;28;20451;-60
2022/07/29 10:00:56;;;;;;;4.07;2.60;;;;;;;;;;5012203;28;20034;-60
2022/07/29 10:03:23;;;;;;;5.63;2.70;;;;;;;;;;5013792;28;20046;-60
2022/07/29 10:06:08;;;;;;;4.25;2.30;;;;;;;;;;5013629;28;20373;-60
2022/07/29 10:08:34;;;;;;;5.15;2.85;;;;;;;;;;5012299;28;20654;-60
2022/07/29 10:11:10;;;;;;;5.43;2.65;;;;;;;;;;5013383;28;20038;-60
2022/07/29 10:13:36;;;;;;;10.02;3.10;;;;;;;;;;4994276;28;20038;-60
2022/07/29 10:16:03;;;;;;;6.68;2.90;;;;;;;;;;5004347;28;20511;-60
2022/07/29 10:18:29;;;;;;;5.45;2.65;;;;;;;;;;5012063;28;20050;-60
2022/07/29 10:20:55;;;;;;;5.13;2.58;;;;;;;;;;5013316;28;20125;-60
2022/07/29 10:23:21;;;;;;;7.32;2.85;;;;;;;;;;5010370;28;20463;-60
2022/07/29 10:25:47;;;;;;;6.03;2.55;;;;;;;;;;5006374;28;20165;-60
2022/07/29 10:28:13;;;;;;;5.32;2.60;;;;;;;;;;5011389;28;20049;-60
2022/07/29 10:30:40;;;;;;;5.10;2.38;;;;;;;;;;5012717;28;20042;-60
2022/07/29 10:33:09;;;;;;;7.43;2.53;;;;;;;;;;5013249;28;20519;-60
2022/07/29 10:35:44;;;;;;;4.85;2.60;;;;;;;;;;5012957;28;20089;-60
2022/07/29 10:38:27;;;;;;;10.30;2.60;;;;;;;;;;5003641;28;20078;-60
2022/07/29 10:43:50;;;;;;;5.45;2.22;;;;;;;;;;5006222;28;20037;-60
2022/07/29 10:46:17;;;;;;;5.03;3.40;;;;;;;;;;5013097;28;20072;-60
2022/07/29 10:49:05;;;;;;;7.25;2.45;;;;;;;;;;5011751;28;20495;-60
2022/07/29 10:51:49;;;;;;;3.97;2.60;;;;;;;;;;5012523;28;20045;-60
2022/07/29 10:54:16;;;;;;;5.60;2.85;;;;;;;;;;5012833;28;20117;-60
2022/07/29 10:56:42;;;;;;;7.05;2.67;;;;;;;;;;5010984;28;20127;-60
2022/07/29 10:59:20;;;;;;;5.43;2.65;;;;;;;;;;5012048;28;20108;-60
2022/07/29 11:01:47;;;;;;;7.40;2.80;;;;;;;;;;4992931;28;20038;-60
2022/07/29 11:04:13;;;;;;;5.03;2.60;;;;;;;;;;4992986;28;20042;-60
2022/07/29 11:07:02;;;;;;;6.60;2.30;;;;;;;;;;4993310;28;20042;-60
2022/07/29 11:09:30;;;;;;;6.70;2.92;;;;;;;;;;4992797;28;20039;-60
2022/07/29 11:11:56;;;;;;;12.05;3.10;;;;;;;;;;5009271;28;20092;-60
2022/07/29 11:14:41;;;;;;;4.50;2.42;;;;;;;;;;5011902;28;20635;-60
2022/07/29 11:17:07;;;;;;;5.88;2.70;;;;;;;;;;5012253;28;20038;-60
2022/07/29 11:19:33;;;;;;;4.95;2.40;;;;;;;;;;5012424;28;20046;-60
2022/07/29 11:22:00;;;;;;;6.50;2.83;;;;;;;;;;5012584;28;20037;-60
2022/07/29 11:24:28;;;;;;;6.78;3.00;;;;;;;;;;5008918;28;20037;-60
2022/07/29 11:27:12;;;;;;;8.93;3.38;;;;;;;;;;5008640;28;20073;-60
2022/07/29 11:29:40;;;;;;;7.43;2.90;;;;;;;;;;4992617;28;20038;-60
2022/07/29 11:32:11;;;;;;;6.57;2.80;;;;;;;;;;4992189;28;20069;-60
2022/07/29 11:34:40;;;;;;;9.63;2.90;;;;;;;;;;4992660;28;20506;-60
2022/07/29 11:37:09;;;;;;;8.15;2.75;;;;;;;;;;4992817;28;20054;-60
2022/07/29 11:39:45;;;;;;;7.38;3.20;;;;;;;;;;5002085;28;20045;-60
2022/07/29 11:42:20;;;;;;;8.93;3.13;;;;;;;;;;5011731;28;20507;-61
2022/07/29 11:45:05;;;;;;;8.68;3.63;;;;;;;;;;5012266;28;20045;-60
2022/07/29 11:47:32;;;;;;;7.78;3.42;;;;;;;;;;5011794;28;20050;-60
2022/07/29 11:50:00;;;;;;;5.82;3.15;;;;;;;;;;5011444;28;20444;-60
2022/07/29 11:52:42;;;;;;;7.60;3.40;;;;;;;;;;5011031;28;20188;-60
2022/07/29 11:55:09;;;;;;;7.00;3.10;;;;;;;;;;5011105;28;20045;-60
2022/07/29 11:57:36;;;;;;;7.85;2.97;;;;;;;;;;4991759;28;20050;-60
2022/07/29 12:00:03;;;;;;;5.72;2.90;;;;;;;;;;4992253;28;20477;-60
2022/07/29 12:02:43;;;;;;;6.47;2.60;;;;;;;;;;4974747;28;20108;-60
2022/07/29 12:05:10;;;;;;;7.38;2.70;;;;;;;;;;4991937;28;20041;-60
2022/07/29 12:07:37;;;;;;;7.97;2.70;;;;;;;;;;5010040;28;20535;-61
2022/07/29 12:10:04;;;;;;;4.55;2.80;;;;;;;;;;5011695;28;20081;-60
2022/07/29 12:12:29;;;;;;;6.07;2.72;;;;;;;;;;5010499;28;20085;-60
2022/07/29 12:14:55;;;;;;;6.35;2.60;;;;;;;;;;5011469;28;20456;-60
2022/07/29 12:17:32;;;;;;;6.72;3.10;;;;;;;;;;5011491;28;20046;-60
2022/07/29 12:19:59;;;;;;;6.28;2.63;;;;;;;;;;5010932;28;20502;-61
2022/07/29 12:22:28;;;;;;;7.75;3.05;;;;;;;;;;5010075;28;20042;-60
2022/07/29 12:24:56;;;;;;;5.75;2.47;;;;;;;;;;5012078;28;20040;-61
2022/07/29 12:27:23;;;;;;;6.80;2.70;;;;;;;;;;5011605;28;20064;-60
2022/07/29 12:30:00;;;;;;;7.30;3.08;;;;;;;;;;5011443;28;20535;-61
2022/07/29 12:32:35;;;;;;;6.80;2.72;;;;;;;;;;5009697;28;20041;-61
2022/07/29 12:35:20;;;;;;;6.82;2.67;;;;;;;;;;5011523;28;20049;-60
2022/07/29 12:37:47;;;;;;;5.57;2.92;;;;;;;;;;5002448;28;20042;-60
2022/07/29 12:40:16;;;;;;;7.57;2.95;;;;;;;;;;5011149;28;20042;-61
2022/07/29 12:43:02;;;;;;;5.20;2.90;;;;;;;;;;5011406;28;20065;-61
2022/07/29 12:45:31;;;;;;;5.38;2.63;;;;;;;;;;5011674;28;20049;-60
2022/07/29 12:47:58;;;;;;;6.75;2.83;;;;;;;;;;5004955;28;20179;-61
2022/07/29 12:50:24;;;;;;;6.47;3.13;;;;;;;;;;5005736;28;20039;-60
2022/07/29 12:52:51;;;;;;;7.93;2.85;;;;;;;;;;5006985;28;20045;-60
2022/07/29 12:55:37;;;;;;;6.68;3.17;;;;;;;;;;5010552;28;20040;-61
2022/07/29 12:58:03;;;;;;;5.80;2.58;;;;;;;;;;5009915;28;20041;-60
2022/07/29 13:00:29;;;;;;;5.65;2.60;;;;;;;;;;5009074;28;20448;-60
2022/07/29 13:02:56;;;;;;;5.82;2.75;;;;;;;;;;5010930;28;20034;-61
2022/07/29 13:05:23;;;;;;;5.50;2.75;;;;;;;;;;5012971;28;20560;-60
2022/07/29 13:07:50;;;;;;;10.70;2.97;;;;;;;;;;5014348;28;20099;-60
2022/07/29 13:10:19;;;;;;;8.65;2.80;;;;;;;;;;5013539;28;20089;-60
2022/07/29 13:13:05;;;;;;;7.15;2.53;;;;;;;;;;5013541;28;20281;-60
2022/07/29 13:15:31;;;;;;;7.15;2.72;;;;;;;;;;4997120;28;20054;-60
2022/07/29 13:17:57;;;;;;;6.10;2.55;;;;;;;;;;5013771;28;20036;-60
2022/07/29 13:20:29;;;;;;;6.32;2.90;;;;;;;;;;5012971;28;20492;-61
2022/07/29 13:22:56;;;;;;;5.63;2.63;;;;;;;;;;5013706;28;20050;-61
2022/07/29 13:25:29;;;;;;;8.52;3.00;;;;;;;;;;5013440;28;20041;-61
2022/07/29 13:27:55;;;;;;;5.32;2.80;;;;;;;;;;5013776;28;20038;-60
2022/07/29 13:30:22;;;;;;;7.00;2.95;;;;;;;;;;5013271;28;20566;-60
2022/07/29 13:32:48;;;;;;;8.52;3.10;;;;;;;;;;5013441;28;20109;-60
2022/07/29 13:35:14;;;;;;;6.78;2.97;;;;;;;;;;5012106;28;20048;-60
2022/07/29 13:37:41;;;;;;;5.70;2.70;;;;;;;;;;5013130;28;20049;-60
2022/07/29 13:40:08;;;;;;;6.15;2.58;;;;;;;;;;5014038;28;20037;-60
2022/07/29 13:42:34;;;;;;;6.88;3.08;;;;;;;;;;5012801;28;20076;-61
2022/07/29 13:45:01;;;;;;;5.72;2.85;;;;;;;;;;5008941;28;20600;-60
2022/07/29 13:47:28;;;;;;;8.15;2.72;;;;;;;;;;5009405;28;20046;-61
2022/07/29 13:49:54;;;;;;;6.25;2.42;;;;;;;;;;5011604;28;20065;-60
2022/07/29 13:52:20;;;;;;;10.50;3.05;;;;;;;;;;5011509;28;20144;-60
2022/07/29 13:54:46;;;;;;;5.07;2.60;;;;;;;;;;5008526;28;20404;-60
2022/07/29 13:57:12;;;;;;;4.38;2.58;;;;;;;;;;4994084;28;20129;-60
2022/07/29 13:59:42;;;;;;;7.93;2.63;;;;;;;;;;4993999;28;20038;-60
2022/07/29 14:02:08;;;;;;;6.63;2.65;;;;;;;;;;5007799;28;20038;-61
2022/07/29 14:04:34;;;;;;;4.68;2.42;;;;;;;;;;5013383;28;20041;-60
2022/07/29 14:07:00;;;;;;;5.85;2.47;;;;;;;;;;4990498;28;20121;-61
2022/07/29 14:09:26;;;;;;;8.57;2.78;;;;;;;;;;5010426;28;20038;-61
2022/07/29 14:11:52;;;;;;;4.57;2.35;;;;;;;;;;5012885;28;20034;-61
2022/07/29 14:14:19;;;;;;;6.80;2.10;;;;;;;;;;5013153;28;20041;-61
2022/07/29 14:16:45;;;;;;;6.40;2.13;;;;;;;;;;5005909;28;20141;-61
2022/07/29 14:19:11;;;;;;;7.10;2.17;;;;;;;;;;5004753;28;20039;-60
2022/07/29 14:21:38;;;;;;;6.43;2.00;;;;;;;;;;5012053;28;20040;-61
2022/07/29 14:24:04;;;;;;;7.05;2.42;;;;;;;;;;5013306;28;20095;-61
2022/07/29 14:26:30;;;;;;;5.75;2.20;;;;;;;;;;5012138;28;20053;-61
2022/07/29 14:28:56;;;;;;;5.53;2.22;;;;;;;;;;5004720;28;20048;-61
2022/07/29 14:31:22;;;;;;;3.72;2.33;;;;;;;;;;5013566;28;20121;-60
2022/07/29 14:33:48;;;;;;;7.22;2.30;;;;;;;;;;5010743;28;20052;-61
2022/07/29 14:36:14;;;;;;;5.32;2.10;;;;;;;;;;5013060;28;20044;-60
2022/07/29 14:38:40;;;;;;;5.00;2.67;;;;;;;;;;5018640;28;20077;-61
2022/07/29 14:41:07;;;;;;;4.50;2.63;;;;;;;;;;5011714;28;20034;-61
2022/07/29 14:43:34;;;;;;;4.20;2.38;;;;;;;;;;5011076;28;20522;-61
2022/07/29 14:46:00;;;;;;;6.32;2.80;;;;;;;;;;5012853;28;20453;-61
2022/07/29 14:48:27;;;;;;;5.30;2.38;;;;;;;;;;5010956;28;20551;-61
2022/07/29 14:50:55;;;;;;;5.68;2.22;;;;;;;;;;5012013;28;20515;-61
2022/07/29 14:53:21;;;;;;;6.18;2.63;;;;;;;;;;5012830;28;20249;-60
2022/07/29 14:55:48;;;;;;;8.82;2.42;;;;;;;;;;5033529;22;20051;-63
2022/07/29 14:58:14;;;;;;;5.53;2.08;;;;;;;;;;5049302;28;20043;-60
2022/07/29 15:00:40;;;;;;;5.80;2.40;;;;;;;;;;5049795;28;20036;-61